createdAt,value
2019-02-23T00:00:12.514Z,89.05
2019-02-23T00:05:07.719Z,89.19
2019-02-23T00:10:06.019Z,88.81
2019-02-23T00:15:07.079Z,88.57
2019-02-23T00:20:05.881Z,88.21
2019-02-23T00:25:01.821Z,88.03
2019-02-23T00:29:57.740Z,88.08
2019-02-23T00:34:53.683Z,87.87
2019-02-23T00:39:49.643Z,87.75
2019-02-23T00:44:46.471Z,87.73
2019-02-23T00:49:42.369Z,87.52
2019-02-23T00:54:38.266Z,87.40
2019-02-23T00:59:34.210Z,87.11
2019-02-23T01:04:30.106Z,86.69
2019-02-23T01:09:26.020Z,86.60
2019-02-23T01:14:21.920Z,86.36
2019-02-23T01:19:17.908Z,85.98
2019-02-23T01:24:13.814Z,85.65
2019-02-23T01:29:09.712Z,85.51
2019-02-23T01:34:05.819Z,85.69
2019-02-23T01:39:01.920Z,84.78
2019-02-23T01:44:00.403Z,84.90
2019-02-23T01:48:55.629Z,84.94
2019-02-23T01:53:51.531Z,85.10
2019-02-23T01:58:47.457Z,85.02
2019-02-23T02:03:43.357Z,85.06
2019-02-23T02:08:39.656Z,84.72
2019-02-23T02:13:35.658Z,84.81
2019-02-23T02:18:31.556Z,85.09
2019-02-23T02:23:27.449Z,85.07
2019-02-23T02:28:23.342Z,85.07
2019-02-23T02:33:19.242Z,85.44
2019-02-23T02:38:15.345Z,85.72
2019-02-23T02:43:11.243Z,85.74
2019-02-23T02:48:07.147Z,86.16
2019-02-23T02:53:03.019Z,85.96
2019-02-23T02:57:58.953Z,85.65
2019-02-23T03:02:54.827Z,85.91
2019-02-23T03:07:50.734Z,85.54
2019-02-23T03:12:46.697Z,85.27
2019-02-23T03:17:42.591Z,84.78
2019-02-23T03:22:38.588Z,84.74
2019-02-23T03:27:34.591Z,84.41
2019-02-23T03:32:30.486Z,84.60
2019-02-23T03:37:26.404Z,84.29
2019-02-23T03:42:22.296Z,84.12
2019-02-23T03:47:18.196Z,84.07
2019-02-23T03:52:14.093Z,83.72
2019-02-23T03:57:10.047Z,83.76
2019-02-23T04:02:06.131Z,83.64
2019-02-23T04:07:02.122Z,83.12
2019-02-23T04:11:58.016Z,83.09
2019-02-23T04:16:53.912Z,82.94
2019-02-23T04:21:49.811Z,82.76
2019-02-23T04:26:45.818Z,82.91
2019-02-23T04:31:41.699Z,82.90
2019-02-23T04:36:37.596Z,82.09
2019-02-23T04:41:33.489Z,81.89
2019-02-23T04:46:29.388Z,81.26
2019-02-23T04:51:25.487Z,81.05
2019-02-23T04:56:21.417Z,81.00
2019-02-23T05:01:17.317Z,80.48
2019-02-23T05:06:13.294Z,79.25
2019-02-23T05:11:09.188Z,78.07
2019-02-23T05:16:05.082Z,78.08
2019-02-23T05:21:00.979Z,78.47
2019-02-23T05:25:56.900Z,77.27
2019-02-23T05:30:52.798Z,76.24
2019-02-23T05:35:48.843Z,77.32
2019-02-23T05:40:44.761Z,77.55
2019-02-23T05:45:41.265Z,77.40
2019-02-23T05:50:37.125Z,76.91
2019-02-23T05:55:33.029Z,76.92
2019-02-23T06:00:29.014Z,77.30
2019-02-23T06:05:24.915Z,75.96
2019-02-23T06:10:20.811Z,75.86
2019-02-23T06:15:18.835Z,75.47
2019-02-23T06:20:14.836Z,75.32
2019-02-23T06:25:10.750Z,74.99
2019-02-23T06:30:11.378Z,74.93
2019-02-23T06:35:08.653Z,75.17
2019-02-23T06:40:07.294Z,75.32
2019-02-23T06:45:10.102Z,75.23
2019-02-23T06:50:06.591Z,75.29
2019-02-23T06:55:02.686Z,75.32
2019-02-23T06:59:58.577Z,74.95
2019-02-23T07:04:54.472Z,74.49
2019-02-23T07:09:50.371Z,73.74
2019-02-23T07:14:50.531Z,73.21
2019-02-23T07:19:46.563Z,73.26
2019-02-23T07:24:42.562Z,72.96
2019-02-23T07:29:38.574Z,72.87
2019-02-23T07:34:34.466Z,73.22
2019-02-23T07:39:30.374Z,73.42
2019-02-23T07:44:26.269Z,74.19
2019-02-23T07:49:22.194Z,74.58
2019-02-23T07:54:18.087Z,74.61
2019-02-23T07:59:14.070Z,74.60
2019-02-23T08:04:09.970Z,74.28
2019-02-23T08:09:06.863Z,73.87
2019-02-23T08:14:02.807Z,73.17
2019-02-23T08:18:59.218Z,73.48
2019-02-23T08:23:55.198Z,72.85
2019-02-23T08:28:51.540Z,72.43
2019-02-23T08:33:47.487Z,72.11
2019-02-23T08:38:43.787Z,72.30
2019-02-23T08:43:39.866Z,71.62
2019-02-23T08:48:36.804Z,71.38
2019-02-23T08:53:33.862Z,70.74
2019-02-23T08:58:29.859Z,70.69
2019-02-23T09:03:25.753Z,70.30
2019-02-23T09:08:21.637Z,70.20
2019-02-23T09:13:17.547Z,70.08
2019-02-23T09:18:14.912Z,69.33
2019-02-23T09:23:10.868Z,68.42
2019-02-23T09:28:06.790Z,67.87
2019-02-23T09:33:02.818Z,67.89
2019-02-23T09:37:59.621Z,66.85
2019-02-23T09:42:55.531Z,66.77
2019-02-23T09:47:51.472Z,65.73
2019-02-23T09:52:47.472Z,65.61
2019-02-23T09:57:43.450Z,64.97
2019-02-23T10:02:39.389Z,64.99
2019-02-23T10:07:36.358Z,64.46
2019-02-23T10:12:33.326Z,63.25
2019-02-23T10:17:29.362Z,62.84
2019-02-23T10:22:27.299Z,62.74
2019-02-23T10:27:23.417Z,62.88
2019-02-23T10:32:20.556Z,62.53
2019-02-23T10:37:16.559Z,62.13
2019-02-23T10:42:13.869Z,61.98
2019-02-23T10:47:10.037Z,60.86
2019-02-23T10:52:06.114Z,59.68
2019-02-23T10:57:02.087Z,58.75
2019-02-23T11:01:58.051Z,58.22
2019-02-23T11:06:55.165Z,58.28
2019-02-23T11:11:51.165Z,58.01
2019-02-23T11:16:47.074Z,56.91
2019-02-23T11:21:43.010Z,56.09
2019-02-23T11:26:38.947Z,56.55
2019-02-23T11:31:34.838Z,56.61
2019-02-23T11:36:30.732Z,54.52
2019-02-23T11:41:26.658Z,53.55
2019-02-23T11:46:22.560Z,53.45
2019-02-23T11:51:18.462Z,52.82
2019-02-23T11:56:14.368Z,52.05
2019-02-23T12:01:11.422Z,52.50
2019-02-23T12:06:07.373Z,50.81
2019-02-23T12:11:03.318Z,49.76
2019-02-23T12:15:59.222Z,49.24
2019-02-23T12:20:55.170Z,48.45
2019-02-23T12:25:51.164Z,47.35
2019-02-23T12:30:47.055Z,47.40
2019-02-23T12:35:43.005Z,47.11
2019-02-23T12:40:47.519Z,45.74
2019-02-23T12:45:44.379Z,44.47
2019-02-23T12:50:40.355Z,44.52
2019-02-23T12:55:36.388Z,43.42
2019-02-23T13:00:32.328Z,42.87
2019-02-23T13:05:28.463Z,42.14
2019-02-23T13:10:26.746Z,41.59
2019-02-23T13:15:48.898Z,40.37
2019-02-23T13:21:01.063Z,38.67
2019-02-23T13:26:10.157Z,37.21
2019-02-23T13:31:22.129Z,37.54
2019-02-23T13:36:43.193Z,36.17
2019-02-23T13:41:51.741Z,35.63
2019-02-23T13:47:00.694Z,35.18
2019-02-23T13:52:03.424Z,35.33
2019-02-23T13:57:17.717Z,34.36
2019-02-23T14:02:34.211Z,35.81
2019-02-23T14:07:48.793Z,33.57
2019-02-23T14:13:13.048Z,34.51
2019-02-23T14:18:24.623Z,33.59
2019-02-23T14:23:36.286Z,34.13
2019-02-23T14:28:41.998Z,33.79
2019-02-23T14:33:47.753Z,33.52
2019-02-23T14:39:02.316Z,33.61
2019-02-23T14:44:20.509Z,33.07
2019-02-23T14:49:25.991Z,32.80
2019-02-23T14:54:31.499Z,32.85
2019-02-23T14:59:34.030Z,32.29
2019-02-23T15:04:51.647Z,33.83
2019-02-23T15:10:14.204Z,33.71
2019-02-23T15:15:29.725Z,34.32
2019-02-23T15:20:32.153Z,34.52
2019-02-23T15:26:09.553Z,34.26
2019-02-23T15:31:24.404Z,35.63
2019-02-23T15:36:40.992Z,35.78
2019-02-23T15:41:56.281Z,35.28
2019-02-23T15:47:16.871Z,36.33
2019-02-23T15:52:15.884Z,36.65
2019-02-23T15:57:11.851Z,36.92
2019-02-23T16:02:08.009Z,37.62
2019-02-23T16:07:04.924Z,38.23
2019-02-23T16:12:01.690Z,38.31
2019-02-23T16:16:59.387Z,39.55
2019-02-23T16:21:57.687Z,40.15
2019-02-23T16:26:53.787Z,40.79
2019-02-23T16:31:50.571Z,40.87
2019-02-23T16:36:48.351Z,41.52
2019-02-23T16:41:45.175Z,40.55
2019-02-23T16:46:41.843Z,42.05
2019-02-23T16:51:38.823Z,42.53
2019-02-23T16:56:34.879Z,43.18
2019-02-23T17:01:31.371Z,43.54
2019-02-23T17:06:27.464Z,44.26
2019-02-23T17:11:24.113Z,44.89
2019-02-23T17:16:20.110Z,44.48
2019-02-23T17:21:16.102Z,45.19
2019-02-23T17:26:12.635Z,45.72
2019-02-23T17:31:10.071Z,46.87
2019-02-23T17:36:07.199Z,46.96
2019-02-23T17:41:05.938Z,47.51
2019-02-23T17:46:05.539Z,47.90
2019-02-23T17:51:01.674Z,47.83
2019-02-23T17:55:57.606Z,48.39
2019-02-23T18:00:54.254Z,49.03
2019-02-23T18:05:52.399Z,48.94
2019-02-23T18:10:49.202Z,49.10
2019-02-23T18:15:49.836Z,49.38
2019-02-23T18:20:48.360Z,50.00
2019-02-23T18:25:46.051Z,50.27
2019-02-23T18:30:42.053Z,51.01
2019-02-23T18:35:39.053Z,51.16
2019-02-23T18:40:35.081Z,51.34
2019-02-23T18:45:35.872Z,51.48
2019-02-23T18:50:31.895Z,51.11
2019-02-23T18:55:27.809Z,51.57
2019-02-23T19:00:43.611Z,51.38
2019-02-23T19:05:49.694Z,52.17
2019-02-23T19:10:46.495Z,51.30
2019-02-23T19:15:46.850Z,51.93
2019-02-23T19:20:42.847Z,51.92
2019-02-23T19:25:38.750Z,52.80
2019-02-23T19:30:34.741Z,52.58
2019-02-23T19:35:30.643Z,53.66
2019-02-23T19:40:26.591Z,53.58
2019-02-23T19:45:24.353Z,54.69
2019-02-23T19:50:24.085Z,55.13
2019-02-23T19:55:20.060Z,54.61
2019-02-23T20:00:15.963Z,55.40
2019-02-23T20:05:11.915Z,55.61
2019-02-23T20:10:09.307Z,56.50
2019-02-23T20:15:13.522Z,57.08
2019-02-23T20:20:09.515Z,56.92
2019-02-23T20:25:07.024Z,56.53
2019-02-23T20:30:06.223Z,57.14
2019-02-23T20:35:02.325Z,57.44
2019-02-23T20:39:58.225Z,56.32
2019-02-23T20:44:54.224Z,57.18
2019-02-23T20:49:50.414Z,57.87
2019-02-23T20:54:47.213Z,57.87
2019-02-23T20:59:43.202Z,57.58
2019-02-23T21:04:39.108Z,57.94
2019-02-23T21:09:35.011Z,58.00
2019-02-23T21:14:30.909Z,56.36
2019-02-23T21:19:26.809Z,57.43
2019-02-23T21:24:22.708Z,58.05
2019-02-23T21:29:18.743Z,57.42
2019-02-23T21:34:14.650Z,57.70
2019-02-23T21:39:10.545Z,58.34
2019-02-23T21:44:07.287Z,57.11
2019-02-23T21:49:03.183Z,56.37
2019-02-23T21:53:59.157Z,56.58
2019-02-23T21:58:55.043Z,57.30
2019-02-23T22:03:50.944Z,56.25
2019-02-23T22:08:46.836Z,56.35
2019-02-23T22:13:42.809Z,56.22
2019-02-23T22:18:38.702Z,55.43
2019-02-23T22:23:34.613Z,55.16
2019-02-23T22:28:30.549Z,54.85
2019-02-23T22:33:26.445Z,54.31
2019-02-23T22:38:22.347Z,53.84
2019-02-23T22:43:18.242Z,54.04
2019-02-23T22:48:14.166Z,53.71
2019-02-23T22:53:10.069Z,53.98
2019-02-23T22:58:05.964Z,53.99
2019-02-23T23:03:01.876Z,53.95
2019-02-23T23:07:57.777Z,53.90
2019-02-23T23:12:53.669Z,54.11
2019-02-23T23:17:49.585Z,54.14
2019-02-23T23:22:45.478Z,54.50
2019-02-23T23:27:49.099Z,54.47
2019-02-23T23:32:39.297Z,54.59
2019-02-23T23:37:35.191Z,54.97
2019-02-23T23:42:31.097Z,55.74
2019-02-23T23:47:26.990Z,55.44
2019-02-23T23:52:22.891Z,55.04
2019-02-23T23:57:18.785Z,55.08
